createdAt,value
2022-07-27T00:01:21.326Z,100068.72
2022-07-27T00:03:50.175Z,100070.22
2022-07-27T00:06:18.824Z,100039.94
2022-07-27T00:08:47.361Z,100058.56
2022-07-27T00:11:16.018Z,99995.44
2022-07-27T00:13:46.359Z,99983.41
2022-07-27T00:16:15.172Z,99977.22
2022-07-27T00:18:43.836Z,99965.66
2022-07-27T00:21:12.553Z,99995.50
2022-07-27T00:23:42.024Z,100053.28
2022-07-27T00:26:10.707Z,99988.91
2022-07-27T00:28:39.296Z,99983.59
2022-07-27T00:31:09.383Z,99944.31
2022-07-27T00:33:38.522Z,99960.56
2022-07-27T00:36:07.877Z,100058.91
2022-07-27T00:38:36.426Z,99965.81
2022-07-27T00:41:06.222Z,100023.38
2022-07-27T00:43:35.452Z,100052.25
2022-07-27T00:46:04.940Z,100050.78
2022-07-27T00:48:35.260Z,100005.31
2022-07-27T00:51:03.975Z,100055.75
2022-07-27T00:53:32.723Z,99958.94
2022-07-27T00:56:01.591Z,100057.97
2022-07-27T00:58:31.055Z,99981.09
2022-07-27T01:01:00.114Z,100036.47
2022-07-27T01:03:29.803Z,99935.69
2022-07-27T01:06:01.927Z,100039.34
2022-07-27T01:08:30.930Z,100046.84
2022-07-27T01:11:00.403Z,100041.66
2022-07-27T01:13:31.392Z,100048.03
2022-07-27T01:16:00.356Z,99913.91
2022-07-27T01:18:32.247Z,99879.47
2022-07-27T01:21:04.979Z,99885.88
2022-07-27T01:23:35.656Z,99871.38
2022-07-27T01:26:05.709Z,100022.16
2022-07-27T01:28:34.444Z,100035.59
2022-07-27T01:31:03.247Z,100042.22
2022-07-27T01:33:32.017Z,99872.63
2022-07-27T01:36:00.668Z,99977.53
2022-07-27T01:38:29.410Z,99957.09
2022-07-27T01:40:59.683Z,99968.03
2022-07-27T01:43:28.389Z,100039.97
2022-07-27T01:45:57.399Z,99892.56
2022-07-27T01:48:26.128Z,99972.38
2022-07-27T01:50:55.267Z,99994.03
2022-07-27T01:53:24.674Z,99953.13
2022-07-27T01:55:53.644Z,100037.63
2022-07-27T01:58:23.748Z,100021.47
2022-07-27T02:00:52.609Z,99847.59
2022-07-27T02:03:21.266Z,100032.63
2022-07-27T02:05:49.967Z,99867.06
2022-07-27T02:08:18.839Z,99840.72
2022-07-27T02:11:04.942Z,99848.19
2022-07-27T02:13:35.558Z,99960.66
2022-07-27T02:16:04.239Z,99984.78
2022-07-27T02:18:41.138Z,100037.91
2022-07-27T02:21:10.737Z,99940.88
2022-07-27T02:23:40.545Z,99996.63
2022-07-27T02:26:10.164Z,99957.06
2022-07-27T02:28:40.067Z,100036.16
2022-07-27T02:31:08.637Z,100018.66
2022-07-27T02:33:37.321Z,99992.00
2022-07-27T02:36:06.672Z,100012.91
2022-07-27T02:38:35.354Z,100016.16
2022-07-27T02:41:04.056Z,99858.31
2022-07-27T02:43:32.868Z,99828.41
2022-07-27T02:46:03.023Z,100016.41
2022-07-27T02:48:33.407Z,99845.88
2022-07-27T02:51:03.165Z,99959.81
2022-07-27T02:53:32.432Z,99842.19
2022-07-27T02:56:01.158Z,99869.88
2022-07-27T02:58:29.889Z,99885.81
2022-07-27T03:00:58.946Z,100001.88
2022-07-27T03:03:36.542Z,99895.94
2022-07-27T03:06:06.100Z,100015.38
2022-07-27T03:08:34.846Z,99908.03
2022-07-27T03:11:03.553Z,99866.53
2022-07-27T03:13:32.285Z,99860.53
2022-07-27T03:16:01.740Z,99859.97
2022-07-27T03:18:31.965Z,99951.34
2022-07-27T03:21:00.687Z,99839.13
2022-07-27T03:23:29.472Z,99817.06
2022-07-27T03:25:58.144Z,99836.81
2022-07-27T03:28:27.673Z,99918.31
2022-07-27T03:30:56.495Z,99893.03
2022-07-27T03:33:25.675Z,99882.34
2022-07-27T03:35:55.809Z,99880.97
2022-07-27T03:38:24.524Z,99992.84
2022-07-27T03:40:53.257Z,99821.50
2022-07-27T03:43:21.994Z,99823.69
2022-07-27T03:45:50.686Z,99941.72
2022-07-27T03:48:19.410Z,99847.53
2022-07-27T03:50:48.409Z,99943.38
2022-07-27T03:53:21.549Z,99923.66
2022-07-27T03:55:50.416Z,99823.38
2022-07-27T03:58:19.293Z,99861.81
2022-07-27T04:03:57.329Z,99817.22
2022-07-27T04:06:26.293Z,99980.41
2022-07-27T04:09:07.830Z,99810.84
2022-07-27T04:11:43.602Z,99827.28
2022-07-27T04:14:19.922Z,99980.59
2022-07-27T04:16:48.835Z,99989.38
2022-07-27T04:19:17.538Z,99916.94
2022-07-27T04:21:46.297Z,99818.28
2022-07-27T04:24:16.473Z,99804.72
2022-07-27T04:26:45.778Z,99930.13
2022-07-27T04:29:19.980Z,99951.34
2022-07-27T04:31:49.446Z,99918.13
2022-07-27T04:34:18.078Z,99795.94
2022-07-27T04:36:46.742Z,99849.00
2022-07-27T04:39:16.874Z,99920.34
2022-07-27T04:41:45.730Z,99984.63
2022-07-27T04:44:14.429Z,99982.88
2022-07-27T04:46:43.355Z,99826.88
2022-07-27T04:49:12.366Z,99812.09
2022-07-27T04:51:45.391Z,99891.00
2022-07-27T04:54:14.453Z,99993.00
2022-07-27T04:56:44.585Z,99924.53
2022-07-27T04:59:13.731Z,99839.78
2022-07-27T05:01:42.687Z,99831.91
2022-07-27T05:04:11.642Z,99835.66
2022-07-27T05:06:40.712Z,99858.63
2022-07-27T05:09:09.663Z,99880.50
2022-07-27T05:11:38.563Z,99990.78
2022-07-27T05:14:09.299Z,99804.34
2022-07-27T05:16:40.619Z,99826.78
2022-07-27T05:19:09.625Z,99832.84
2022-07-27T05:21:38.534Z,99870.78
2022-07-27T05:24:07.747Z,100001.03
2022-07-27T05:26:36.452Z,100013.47
2022-07-27T05:29:05.548Z,100021.16
2022-07-27T05:31:36.019Z,99927.34
2022-07-27T05:34:04.743Z,99847.03
2022-07-27T05:36:33.430Z,99848.38
2022-07-27T05:39:02.214Z,99927.06
2022-07-27T05:41:31.305Z,100017.19
2022-07-27T05:43:59.964Z,99862.91
2022-07-27T05:46:32.641Z,99848.25
2022-07-27T05:49:03.057Z,99884.78
2022-07-27T05:51:32.237Z,99932.28
2022-07-27T05:54:01.430Z,100035.78
2022-07-27T05:56:30.252Z,99851.38
2022-07-27T05:59:02.574Z,100026.28
2022-07-27T06:01:33.795Z,99860.88
2022-07-27T06:04:04.149Z,100031.56
2022-07-27T06:06:50.423Z,99863.56
2022-07-27T06:09:19.052Z,99875.56
2022-07-27T06:11:47.708Z,99854.72
2022-07-27T06:14:16.476Z,99854.59
2022-07-27T06:16:45.191Z,99871.91
2022-07-27T06:19:16.141Z,99879.06
2022-07-27T06:21:44.770Z,99925.63
2022-07-27T06:24:14.725Z,100014.63
2022-07-27T06:26:43.459Z,100013.56
2022-07-27T06:29:13.870Z,100015.53
2022-07-27T06:31:43.237Z,99930.47
2022-07-27T06:34:14.899Z,99943.31
2022-07-27T06:36:45.401Z,100008.25
2022-07-27T06:39:14.634Z,99955.88
2022-07-27T06:41:43.494Z,99888.16
2022-07-27T06:44:14.983Z,100025.25
2022-07-27T06:46:43.854Z,100037.25
2022-07-27T06:49:12.853Z,100030.69
2022-07-27T06:51:43.324Z,100027.59
2022-07-27T06:54:11.931Z,99917.22
2022-07-27T06:56:40.552Z,100022.00
2022-07-27T06:59:10.143Z,99899.00
2022-07-27T07:01:39.066Z,99957.03
2022-07-27T07:04:09.386Z,100025.91
2022-07-27T07:06:38.271Z,99899.06
2022-07-27T07:09:11.144Z,99940.84
2022-07-27T07:11:40.017Z,99911.50
2022-07-27T07:14:08.623Z,99918.78
2022-07-27T07:16:37.336Z,99989.94
2022-07-27T07:19:06.524Z,99966.06
2022-07-27T07:21:35.139Z,99993.28
2022-07-27T07:24:03.745Z,100035.28
2022-07-27T07:26:36.685Z,100043.38
2022-07-27T07:29:05.462Z,99965.97
2022-07-27T07:31:34.244Z,99976.38
2022-07-27T07:34:07.691Z,99969.16
2022-07-27T07:36:38.898Z,100048.16
2022-07-27T07:39:07.606Z,99923.13
2022-07-27T07:41:37.728Z,99993.00
2022-07-27T07:44:06.796Z,99991.81
2022-07-27T07:46:37.110Z,99916.22
2022-07-27T07:49:06.420Z,99972.25
2022-07-27T07:51:35.089Z,100022.09
2022-07-27T07:54:03.861Z,100004.09
2022-07-27T07:56:32.442Z,100034.13
2022-07-27T07:59:05.141Z,100047.44
2022-07-27T08:01:34.073Z,100000.88
2022-07-27T08:04:02.939Z,99970.88
2022-07-27T08:06:32.140Z,100044.34
2022-07-27T08:09:00.836Z,99969.22
2022-07-27T08:11:29.447Z,100037.69
2022-07-27T08:13:58.149Z,99996.22
2022-07-27T08:16:28.589Z,99988.75
2022-07-27T08:18:57.364Z,99961.28
2022-07-27T08:21:25.956Z,100000.13
2022-07-27T08:23:58.806Z,99940.22
2022-07-27T08:26:31.347Z,100042.94
2022-07-27T08:29:04.424Z,99957.88
2022-07-27T08:31:51.314Z,100054.16
2022-07-27T08:34:21.945Z,100053.41
2022-07-27T08:36:50.556Z,99983.47
2022-07-27T08:39:52.978Z,99960.06
2022-07-27T08:42:10.943Z,99966.56
2022-07-27T08:44:41.939Z,100031.69
2022-07-27T08:47:12.689Z,100017.84
2022-07-27T08:49:43.919Z,99932.44
2022-07-27T08:52:13.636Z,99971.59
2022-07-27T08:54:43.287Z,99957.97
2022-07-27T08:57:13.256Z,99943.31
2022-07-27T08:59:41.921Z,99953.47
2022-07-27T09:02:15.650Z,99947.50
2022-07-27T09:04:44.344Z,99944.91
2022-07-27T09:07:31.172Z,99939.91
2022-07-27T09:10:01.541Z,99995.81
2022-07-27T09:12:31.742Z,99902.38
2022-07-27T09:15:07.469Z,99986.47
2022-07-27T09:17:53.812Z,99874.28
2022-07-27T09:20:22.683Z,99986.38
2022-07-27T09:22:52.838Z,99936.31
2022-07-27T09:25:38.754Z,99930.69
2022-07-27T09:28:11.730Z,99993.50
2022-07-27T09:30:43.932Z,99932.91
2022-07-27T09:33:16.695Z,99941.38
2022-07-27T09:35:46.421Z,99987.31
2022-07-27T09:38:19.454Z,99995.16
2022-07-27T09:40:49.819Z,99927.41
2022-07-27T09:44:19.784Z,99964.22
2022-07-27T09:46:08.458Z,99969.50
2022-07-27T09:48:38.617Z,99891.81
2022-07-27T09:51:55.943Z,99991.38
2022-07-27T09:53:59.549Z,99985.47
2022-07-27T09:56:29.801Z,99917.28
2022-07-27T09:59:00.116Z,99937.09
2022-07-27T10:01:30.379Z,99978.66
2022-07-27T10:04:05.659Z,99951.75
2022-07-27T10:07:00.402Z,99910.41
2022-07-27T10:09:23.064Z,99858.38
2022-07-27T10:11:51.817Z,99909.50
2022-07-27T10:14:20.398Z,99946.88
2022-07-27T10:16:51.880Z,99966.06
2022-07-27T10:19:27.054Z,99935.75
2022-07-27T10:21:55.757Z,99973.91
2022-07-27T10:24:31.684Z,99980.03
2022-07-27T10:27:00.467Z,99975.16
2022-07-27T10:29:28.975Z,99969.66
2022-07-27T10:32:00.514Z,99973.25
2022-07-27T10:34:41.157Z,99944.56
2022-07-27T10:37:11.648Z,99958.91
2022-07-27T10:39:43.256Z,99944.56
2022-07-27T10:42:29.610Z,99946.97
2022-07-27T10:45:10.567Z,99921.22
2022-07-27T10:47:42.294Z,99930.84
2022-07-27T10:50:48.369Z,99945.34
2022-07-27T10:53:17.004Z,99926.38
2022-07-27T10:55:49.524Z,99951.44
2022-07-27T10:59:00.642Z,99945.25
2022-07-27T11:01:29.364Z,99957.06
2022-07-27T11:04:09.344Z,99949.81
2022-07-27T11:07:09.970Z,99928.88
2022-07-27T11:10:03.631Z,99908.72
2022-07-27T11:12:35.350Z,99888.53
2022-07-27T11:15:08.018Z,99894.56
2022-07-27T11:20:28.709Z,99936.44
2022-07-27T11:26:02.236Z,99899.34
2022-07-27T11:28:31.495Z,99909.59
2022-07-27T11:31:03.671Z,99905.47
2022-07-27T11:33:33.138Z,99921.00
2022-07-27T11:36:04.319Z,99885.25
2022-07-27T11:38:48.040Z,99896.69
2022-07-27T11:41:39.867Z,99835.13
2022-07-27T11:44:14.851Z,99889.19
2022-07-27T11:46:45.686Z,99902.28
2022-07-27T11:49:15.794Z,99854.69
2022-07-27T11:51:46.143Z,99871.66
2022-07-27T11:54:24.712Z,99885.53
2022-07-27T11:56:55.365Z,99870.97
2022-07-27T11:59:25.451Z,99872.31
2022-07-27T12:01:55.749Z,99830.69
2022-07-27T12:04:27.345Z,99862.09
2022-07-27T12:06:59.534Z,99817.63
2022-07-27T12:09:38.041Z,99806.44
2022-07-27T12:12:14.049Z,99845.72
2022-07-27T12:14:46.028Z,99846.53
2022-07-27T12:17:19.215Z,99829.53
2022-07-27T12:19:59.010Z,99845.53
2022-07-27T12:22:32.818Z,99834.94
2022-07-27T12:25:16.002Z,99824.41
2022-07-27T12:27:56.626Z,99816.53
2022-07-27T12:30:35.936Z,99861.53
2022-07-27T12:33:06.476Z,99813.47
2022-07-27T12:35:46.112Z,99835.53
2022-07-27T12:38:15.095Z,99848.59
2022-07-27T12:40:49.689Z,99837.56
2022-07-27T12:43:19.836Z,99832.38
2022-07-27T12:45:49.229Z,99853.16
2022-07-27T12:48:19.908Z,99836.31
2022-07-27T12:50:50.673Z,99807.78
2022-07-27T12:53:19.301Z,99841.88
2022-07-27T12:55:49.543Z,99851.03
2022-07-27T12:58:18.120Z,99801.91
2022-07-27T13:00:48.112Z,99821.81
2022-07-27T13:03:18.890Z,99816.19
2022-07-27T13:05:47.968Z,99845.50
2022-07-27T13:08:17.162Z,99845.91
2022-07-27T13:10:46.176Z,99828.53
2022-07-27T13:13:16.120Z,99831.19
2022-07-27T13:15:44.693Z,99803.69
2022-07-27T13:18:13.163Z,99810.69
2022-07-27T13:20:42.659Z,99812.91
2022-07-27T13:23:11.150Z,99803.78
2022-07-27T13:25:43.346Z,99820.88
2022-07-27T13:28:12.465Z,99801.56
2022-07-27T13:30:42.396Z,99816.13
2022-07-27T13:33:11.041Z,99807.19
2022-07-27T13:35:39.578Z,99817.44
2022-07-27T13:38:08.613Z,99764.50
2022-07-27T13:40:44.916Z,99802.31
2022-07-27T13:43:13.412Z,99787.00
2022-07-27T13:45:43.867Z,99797.06
2022-07-27T13:48:13.449Z,99814.44
2022-07-27T13:50:42.452Z,99779.44
2022-07-27T13:53:15.320Z,99748.72
2022-07-27T13:55:45.295Z,99815.47
2022-07-27T13:58:14.459Z,99812.50
2022-07-27T14:00:44.367Z,99822.50
2022-07-27T14:03:13.048Z,99805.63
2022-07-27T14:05:43.584Z,99782.28
2022-07-27T14:08:18.478Z,99779.66
2022-07-27T14:10:47.000Z,99796.50
2022-07-27T14:13:17.420Z,99802.75
2022-07-27T14:15:50.805Z,99810.44
2022-07-27T14:18:27.887Z,99780.63
2022-07-27T14:20:57.480Z,99806.84
2022-07-27T14:23:27.673Z,99797.66
2022-07-27T14:25:57.623Z,99805.44
2022-07-27T14:28:27.432Z,99772.63
2022-07-27T14:30:57.845Z,99814.03
2022-07-27T14:33:33.259Z,99806.09
2022-07-27T14:36:06.471Z,99798.47
2022-07-27T14:38:35.198Z,99799.97
2022-07-27T14:41:04.897Z,99793.97
2022-07-27T14:43:33.609Z,99813.97
2022-07-27T14:46:03.835Z,99798.88
2022-07-27T14:49:03.310Z,99726.44
2022-07-27T14:51:20.929Z,99802.41
2022-07-27T14:53:49.444Z,99791.59
2022-07-27T14:56:18.187Z,99781.56
2022-07-27T14:58:46.755Z,99746.59
2022-07-27T15:01:17.270Z,99780.25
2022-07-27T15:03:47.291Z,99759.41
2022-07-27T15:06:16.034Z,99775.34
2022-07-27T15:08:44.718Z,99778.09
2022-07-27T15:11:13.308Z,99772.63
2022-07-27T15:13:41.808Z,99776.88
2022-07-27T15:16:12.032Z,99776.47
2022-07-27T15:18:42.426Z,99770.28
2022-07-27T15:21:14.255Z,99730.63
2022-07-27T15:23:44.670Z,99725.63
2022-07-27T15:26:13.810Z,99776.78
2022-07-27T15:28:42.611Z,99764.59
2022-07-27T15:31:11.525Z,99780.28
2022-07-27T15:33:41.619Z,99773.47
2022-07-27T15:36:10.391Z,99754.88
2022-07-27T15:38:58.985Z,99749.97
2022-07-27T15:41:28.360Z,99774.34
2022-07-27T15:43:57.594Z,99737.75
2022-07-27T15:46:27.752Z,99768.69
2022-07-27T15:48:57.965Z,99774.22
2022-07-27T15:51:27.225Z,99777.63
2022-07-27T15:53:57.234Z,99772.38
2022-07-27T15:56:26.273Z,99767.22
2022-07-27T15:58:55.118Z,99771.22
2022-07-27T16:01:23.691Z,99770.44
2022-07-27T16:04:05.806Z,99780.72
2022-07-27T16:06:39.231Z,99776.41
2022-07-27T16:09:09.624Z,99707.94
2022-07-27T16:11:38.836Z,99772.91
2022-07-27T16:14:07.311Z,99779.09
2022-07-27T16:16:35.950Z,99773.84
2022-07-27T16:19:12.660Z,99772.09
2022-07-27T16:21:55.323Z,99778.28
2022-07-27T16:24:25.490Z,99774.31
2022-07-27T16:26:54.301Z,99740.66
2022-07-27T16:29:23.444Z,99766.53
2022-07-27T16:31:55.034Z,99768.31
2022-07-27T16:34:25.192Z,99766.88
2022-07-27T16:36:54.142Z,99773.22
2022-07-27T16:39:23.079Z,99780.13
2022-07-27T16:41:51.979Z,99775.09
2022-07-27T16:44:21.758Z,99777.81
2022-07-27T16:46:50.779Z,99779.31
2022-07-27T16:49:21.886Z,99788.19
2022-07-27T16:52:03.365Z,99773.56
2022-07-27T16:54:36.966Z,99783.28
2022-07-27T16:57:08.133Z,99752.94
2022-07-27T16:59:39.482Z,99762.25
2022-07-27T17:02:08.340Z,99782.06
2022-07-27T17:04:37.067Z,99782.63
2022-07-27T17:07:07.003Z,99779.38
2022-07-27T17:09:41.437Z,99781.25
2022-07-27T17:12:10.385Z,99774.38
2022-07-27T17:14:38.872Z,99768.00
2022-07-27T17:17:08.533Z,99767.59
2022-07-27T17:19:37.135Z,99771.66
2022-07-27T17:22:07.280Z,99772.69
2022-07-27T17:24:38.185Z,99776.63
2022-07-27T17:27:06.926Z,99778.84
2022-07-27T17:29:35.450Z,99789.72
2022-07-27T17:32:04.231Z,99777.00
2022-07-27T17:34:32.802Z,99767.78
2022-07-27T17:37:02.433Z,99772.69
2022-07-27T17:39:33.442Z,99766.94
2022-07-27T17:42:02.202Z,99772.91
2022-07-27T17:44:30.887Z,99778.47
2022-07-27T17:47:01.267Z,99781.72
2022-07-27T17:49:29.960Z,99784.94
2022-07-27T17:51:58.727Z,99781.88
2022-07-27T17:54:27.338Z,99775.78
2022-07-27T17:56:57.253Z,99774.16
2022-07-27T17:59:37.464Z,99783.03
2022-07-27T18:02:07.112Z,99787.63
2022-07-27T18:04:39.126Z,99784.94
2022-07-27T18:07:08.137Z,99775.34
2022-07-27T18:09:36.618Z,99784.28
2022-07-27T18:12:07.505Z,99776.22
2022-07-27T18:14:38.453Z,99787.25
2022-07-27T18:17:07.053Z,99781.97
2022-07-27T18:19:35.620Z,99792.09
2022-07-27T18:22:04.095Z,99793.00
2022-07-27T18:24:35.716Z,99784.66
2022-07-27T18:27:04.297Z,99780.63
2022-07-27T18:29:34.148Z,99785.09
2022-07-27T18:32:02.966Z,99780.88
2022-07-27T18:34:31.424Z,99784.41
2022-07-27T18:36:59.904Z,99786.34
2022-07-27T18:39:33.613Z,99787.59
2022-07-27T18:42:04.031Z,99781.53
2022-07-27T18:44:38.863Z,99793.00
2022-07-27T18:47:07.982Z,99790.94
2022-07-27T18:49:36.644Z,99798.81
2022-07-27T18:52:05.590Z,99816.47
2022-07-27T18:54:34.648Z,99808.84
2022-07-27T18:57:03.493Z,99812.03
2022-07-27T18:59:38.181Z,99805.75
2022-07-27T19:02:09.891Z,99794.97
2022-07-27T19:04:38.422Z,99813.75
2022-07-27T19:07:09.944Z,99818.91
2022-07-27T19:09:38.497Z,99801.53
2022-07-27T19:12:09.756Z,99815.41
2022-07-27T19:14:40.320Z,99820.78
2022-07-27T19:17:14.821Z,99819.13
2022-07-27T19:19:43.826Z,99827.00
2022-07-27T19:22:12.977Z,99829.97
2022-07-27T19:24:41.597Z,99826.34
2022-07-27T19:27:10.448Z,99831.78
2022-07-27T19:29:41.221Z,99827.66
2022-07-27T19:32:11.140Z,99833.88
2022-07-27T19:34:39.922Z,99835.16
2022-07-27T19:37:08.485Z,99840.53
2022-07-27T19:39:57.173Z,99847.53
2022-07-27T19:42:26.734Z,99843.00
2022-07-27T19:44:56.716Z,99844.25
2022-07-27T19:47:25.782Z,99850.88
2022-07-27T19:49:54.342Z,99859.72
2022-07-27T19:52:22.902Z,99869.78
2022-07-27T19:54:51.475Z,99871.25
2022-07-27T19:57:21.321Z,99859.66
2022-07-27T19:59:55.828Z,99868.94
2022-07-27T20:02:26.615Z,99876.34
2022-07-27T20:04:55.131Z,99877.13
2022-07-27T20:07:23.648Z,99882.91
2022-07-27T20:09:52.357Z,99887.81
2022-07-27T20:12:21.628Z,99887.19
2022-07-27T20:14:50.110Z,99894.75
2022-07-27T20:17:18.622Z,99891.44
2022-07-27T20:19:48.735Z,99897.72
2022-07-27T20:22:17.238Z,99900.03
2022-07-27T20:24:45.771Z,99898.19
2022-07-27T20:27:14.363Z,99912.84
2022-07-27T20:29:42.855Z,99910.47
2022-07-27T20:32:12.659Z,99914.78
2022-07-27T20:34:41.212Z,99925.88
2022-07-27T20:37:13.253Z,99919.81
2022-07-27T20:39:41.954Z,99917.16
2022-07-27T20:42:11.063Z,99928.69
2022-07-27T20:44:39.544Z,99926.53
2022-07-27T20:47:09.147Z,99943.19
2022-07-27T20:49:37.639Z,99939.34
2022-07-27T20:52:07.712Z,99953.47
2022-07-27T20:54:38.577Z,99958.97
2022-07-27T20:57:07.680Z,99958.97
2022-07-27T20:59:36.643Z,99946.28
2022-07-27T21:02:07.848Z,99951.50
2022-07-27T21:04:36.714Z,99961.19
2022-07-27T21:07:05.618Z,99964.56
2022-07-27T21:09:34.225Z,99965.25
2022-07-27T21:12:04.354Z,99975.53
2022-07-27T21:14:32.919Z,99964.13
2022-07-27T21:17:01.628Z,99964.31
2022-07-27T21:19:30.334Z,99979.22
2022-07-27T21:21:59.159Z,99982.47
2022-07-27T21:24:29.007Z,99975.44
2022-07-27T21:27:04.436Z,99979.47
2022-07-27T21:29:34.811Z,99985.75
2022-07-27T21:32:03.420Z,99986.63
2022-07-27T21:34:31.880Z,99981.69
2022-07-27T21:37:00.595Z,99989.22
2022-07-27T21:39:29.106Z,99996.13
2022-07-27T21:42:01.835Z,99986.22
2022-07-27T21:44:31.267Z,100001.88
2022-07-27T21:47:01.227Z,99991.88
2022-07-27T21:49:33.985Z,99988.44
2022-07-27T21:52:03.389Z,99983.09
2022-07-27T21:54:31.855Z,99998.28
2022-07-27T21:57:00.335Z,100005.03
2022-07-27T21:59:28.880Z,99995.38
2022-07-27T22:01:58.951Z,99994.50
2022-07-27T22:04:29.350Z,99990.41
2022-07-27T22:06:57.846Z,99998.75
2022-07-27T22:09:26.322Z,99967.97
2022-07-27T22:11:56.239Z,99988.78
2022-07-27T22:14:25.480Z,99992.97
2022-07-27T22:16:54.170Z,99990.63
2022-07-27T22:19:23.572Z,99979.69
2022-07-27T22:21:53.470Z,99978.22
2022-07-27T22:24:22.407Z,99994.22
2022-07-27T22:26:50.982Z,99986.19
2022-07-27T22:29:19.470Z,99980.00
2022-07-27T22:31:48.007Z,99987.38
2022-07-27T22:34:16.908Z,99999.19
2022-07-27T22:36:45.810Z,100001.19
2022-07-27T22:39:15.706Z,100007.47
2022-07-27T22:41:44.197Z,100002.34
2022-07-27T22:44:13.094Z,100009.38
2022-07-27T22:46:44.587Z,99999.84
2022-07-27T22:49:13.142Z,100007.63
2022-07-27T22:51:50.019Z,100003.75
2022-07-27T22:54:23.582Z,99995.00
2022-07-27T22:56:54.658Z,99997.94
2022-07-27T22:59:23.151Z,100006.16
2022-07-27T23:01:51.722Z,100006.47
2022-07-27T23:04:20.666Z,100005.97
2022-07-27T23:06:49.400Z,100006.97
2022-07-27T23:09:17.910Z,100014.00
2022-07-27T23:11:47.844Z,100007.47
2022-07-27T23:14:16.803Z,100007.28
2022-07-27T23:16:45.914Z,100010.63
2022-07-27T23:19:14.429Z,100010.44
2022-07-27T23:21:42.906Z,100012.78
2022-07-27T23:24:13.525Z,100012.88
2022-07-27T23:26:43.498Z,99998.41
2022-07-27T23:29:13.373Z,100016.06
2022-07-27T23:31:41.851Z,100025.81
2022-07-27T23:34:10.672Z,100020.41
2022-07-27T23:36:39.267Z,100015.31
2022-07-27T23:39:09.848Z,100006.91
2022-07-27T23:41:38.298Z,100016.81
2022-07-27T23:44:07.034Z,100014.41
2022-07-27T23:46:36.933Z,99998.00
2022-07-27T23:49:05.451Z,100004.88
2022-07-27T23:51:33.965Z,100014.91
2022-07-27T23:54:02.522Z,100015.34
2022-07-27T23:56:30.979Z,100003.38
2022-07-27T23:58:59.446Z,100021.63
